createdAt,value
2018-11-07T00:00:42.253Z,99.90
2018-11-07T00:03:10.464Z,99.90
2018-11-07T00:05:38.662Z,99.90
2018-11-07T00:08:07.237Z,99.90
2018-11-07T00:10:35.348Z,99.90
2018-11-07T00:13:03.573Z,99.90
2018-11-07T00:15:31.758Z,99.90
2018-11-07T00:18:00.026Z,99.90
2018-11-07T00:20:28.201Z,99.90
2018-11-07T00:23:02.704Z,99.90
2018-11-07T00:25:30.935Z,99.90
2018-11-07T00:27:59.232Z,99.90
2018-11-07T00:30:27.497Z,99.90
2018-11-07T00:32:55.683Z,99.90
2018-11-07T00:35:23.908Z,99.90
2018-11-07T00:37:52.116Z,99.90
2018-11-07T00:40:20.523Z,99.90
2018-11-07T00:42:48.772Z,99.90
2018-11-07T00:45:16.986Z,99.90
2018-11-07T00:47:45.244Z,99.90
2018-11-07T00:50:15.973Z,99.90
2018-11-07T00:52:44.712Z,99.90
2018-11-07T00:55:13.637Z,99.90
2018-11-07T00:57:42.080Z,99.90
2018-11-07T01:00:12.813Z,99.90
2018-11-07T01:02:41.027Z,99.90
2018-11-07T01:05:10.811Z,99.90
2018-11-07T01:07:39.057Z,99.90
2018-11-07T01:10:08.019Z,99.90
2018-11-07T01:12:36.264Z,99.90
2018-11-07T01:15:04.768Z,99.90
2018-11-07T01:17:33.025Z,99.90
2018-11-07T01:20:01.283Z,99.90
2018-11-07T01:22:30.164Z,99.90
2018-11-07T01:24:58.644Z,99.90
2018-11-07T01:27:26.854Z,99.90
2018-11-07T01:29:55.041Z,99.90
2018-11-07T01:32:23.316Z,99.90
2018-11-07T01:34:51.718Z,99.90
2018-11-07T01:37:19.920Z,99.90
2018-11-07T01:39:48.166Z,99.90
2018-11-07T01:42:16.448Z,99.90
2018-11-07T01:44:44.681Z,99.90
2018-11-07T01:47:12.944Z,99.90
2018-11-07T01:49:41.138Z,99.90
2018-11-07T01:52:09.329Z,99.90
2018-11-07T01:54:37.580Z,99.90
2018-11-07T01:57:06.032Z,99.90
2018-11-07T01:59:34.307Z,99.90
2018-11-07T02:02:02.551Z,99.90
2018-11-07T02:04:30.820Z,99.90
2018-11-07T02:06:59.138Z,99.90
2018-11-07T02:09:27.411Z,99.90
2018-11-07T02:11:55.630Z,99.90
2018-11-07T02:14:23.857Z,99.90
2018-11-07T02:16:52.117Z,99.90
2018-11-07T02:19:20.327Z,99.90
2018-11-07T02:21:48.496Z,99.90
2018-11-07T02:24:16.697Z,99.90
2018-11-07T02:26:44.934Z,99.90
2018-11-07T02:29:13.733Z,99.90
2018-11-07T02:31:43.341Z,99.90
2018-11-07T02:34:11.823Z,99.90
2018-11-07T02:36:40.239Z,99.90
2018-11-07T02:39:10.336Z,99.90
2018-11-07T02:41:38.697Z,99.90
2018-11-07T02:44:06.881Z,99.90
2018-11-07T02:46:35.153Z,99.90
2018-11-07T02:49:03.641Z,99.90
2018-11-07T02:51:31.969Z,99.90
2018-11-07T02:54:00.822Z,99.90
2018-11-07T02:56:29.419Z,99.90
2018-11-07T02:58:58.280Z,99.90
2018-11-07T03:01:26.932Z,99.90
2018-11-07T03:03:55.044Z,99.90
2018-11-07T03:06:23.245Z,99.90
2018-11-07T03:08:51.422Z,99.90
2018-11-07T03:11:19.618Z,99.90
2018-11-07T03:13:47.886Z,99.90
2018-11-07T03:16:16.109Z,99.90
2018-11-07T03:18:44.284Z,99.90
2018-11-07T03:21:12.590Z,99.90
2018-11-07T03:23:40.899Z,99.90
2018-11-07T03:26:09.218Z,99.90
2018-11-07T03:28:37.392Z,99.90
2018-11-07T03:31:05.676Z,99.90
2018-11-07T03:33:33.874Z,99.90
2018-11-07T03:36:02.093Z,99.90
2018-11-07T03:38:30.337Z,99.90
2018-11-07T03:40:58.545Z,99.90
2018-11-07T03:43:26.735Z,99.90
2018-11-07T03:45:58.936Z,99.90
2018-11-07T03:48:28.439Z,99.90
2018-11-07T03:50:56.814Z,99.90
2018-11-07T03:53:25.219Z,99.90
2018-11-07T03:55:53.409Z,99.90
2018-11-07T03:58:21.657Z,99.90
2018-11-07T04:00:49.940Z,99.90
2018-11-07T04:03:18.338Z,99.90
2018-11-07T04:05:46.578Z,99.90
2018-11-07T04:08:14.765Z,99.90
2018-11-07T04:10:42.952Z,99.90
2018-11-07T04:13:11.219Z,99.90
2018-11-07T04:15:39.405Z,99.90
2018-11-07T04:18:07.591Z,99.90
2018-11-07T04:20:35.757Z,99.90
2018-11-07T04:23:04.216Z,99.90
2018-11-07T04:25:32.460Z,99.90
2018-11-07T04:28:00.665Z,99.90
2018-11-07T04:30:28.904Z,99.90
2018-11-07T04:32:57.237Z,99.90
2018-11-07T04:35:25.483Z,99.90
2018-11-07T04:37:53.759Z,99.90
2018-11-07T04:40:21.996Z,99.90
2018-11-07T04:42:50.208Z,99.90
2018-11-07T04:45:18.399Z,99.90
2018-11-07T04:47:46.611Z,99.90
2018-11-07T04:50:14.836Z,99.90
2018-11-07T04:52:43.005Z,99.90
2018-11-07T04:55:11.178Z,99.90
2018-11-07T04:57:39.405Z,99.90
2018-11-07T05:00:09.386Z,99.90
2018-11-07T05:02:37.507Z,99.90
2018-11-07T05:05:05.821Z,99.90
2018-11-07T05:07:34.058Z,99.90
2018-11-07T05:10:02.263Z,99.90
2018-11-07T05:12:30.451Z,99.90
2018-11-07T05:14:58.698Z,99.90
2018-11-07T05:17:26.957Z,99.90
2018-11-07T05:19:55.233Z,99.90
2018-11-07T05:22:23.388Z,99.90
2018-11-07T05:24:51.576Z,99.90
2018-11-07T05:27:19.898Z,99.90
2018-11-07T05:29:48.124Z,99.90
2018-11-07T05:32:16.347Z,99.90
2018-11-07T05:34:44.501Z,99.90
2018-11-07T05:37:12.681Z,99.90
2018-11-07T05:39:40.892Z,99.90
2018-11-07T05:42:09.141Z,99.90
2018-11-07T05:44:37.347Z,99.90
2018-11-07T05:47:05.681Z,99.90
2018-11-07T05:49:33.858Z,99.90
2018-11-07T05:52:02.066Z,99.90
2018-11-07T05:54:30.346Z,99.90
2018-11-07T05:56:58.536Z,99.90
2018-11-07T05:59:27.611Z,99.90
2018-11-07T06:01:55.829Z,99.90
2018-11-07T06:04:23.995Z,99.90
2018-11-07T06:06:52.158Z,99.90
2018-11-07T06:09:20.324Z,99.90
2018-11-07T06:11:48.529Z,99.90
2018-11-07T06:14:16.722Z,99.90
2018-11-07T06:16:45.022Z,99.90
2018-11-07T06:19:13.330Z,99.90
2018-11-07T06:21:41.778Z,99.90
2018-11-07T06:24:10.020Z,99.90
2018-11-07T06:26:38.128Z,99.90
2018-11-07T06:29:06.389Z,99.90
2018-11-07T06:31:34.952Z,99.90
2018-11-07T06:34:03.258Z,99.90
2018-11-07T06:36:31.400Z,99.90
2018-11-07T06:38:59.597Z,99.90
2018-11-07T06:41:27.846Z,99.90
2018-11-07T06:43:56.063Z,99.90
2018-11-07T06:46:24.251Z,99.90
2018-11-07T06:48:52.428Z,99.90
2018-11-07T06:51:20.588Z,99.90
2018-11-07T06:53:48.786Z,99.90
2018-11-07T06:56:17.010Z,99.90
2018-11-07T06:58:45.263Z,99.90
2018-11-07T07:01:13.790Z,99.90
2018-11-07T07:03:41.917Z,99.90
2018-11-07T07:06:10.144Z,99.90
2018-11-07T07:08:38.382Z,99.90
2018-11-07T07:11:06.868Z,99.90
2018-11-07T07:13:35.502Z,99.90
2018-11-07T07:16:03.685Z,99.90
2018-11-07T07:18:31.878Z,99.90
2018-11-07T07:21:00.080Z,99.90
2018-11-07T07:23:28.381Z,99.90
2018-11-07T07:25:56.613Z,99.90
2018-11-07T07:28:24.873Z,99.90
2018-11-07T07:30:53.048Z,99.90
2018-11-07T07:33:21.306Z,99.90
2018-11-07T07:35:49.645Z,99.90
2018-11-07T07:38:17.990Z,99.90
2018-11-07T07:40:46.204Z,99.90
2018-11-07T07:43:14.373Z,99.90
2018-11-07T07:45:42.700Z,99.90
2018-11-07T07:48:10.911Z,99.90
2018-11-07T07:50:39.123Z,99.90
2018-11-07T07:53:07.394Z,99.90
2018-11-07T07:55:35.473Z,99.90
2018-11-07T07:58:03.754Z,99.90
2018-11-07T08:00:32.006Z,99.90
2018-11-07T08:03:00.278Z,99.90
2018-11-07T08:05:29.241Z,99.90
2018-11-07T08:07:57.528Z,99.90
2018-11-07T08:10:25.814Z,99.90
2018-11-07T08:12:54.104Z,99.90
2018-11-07T08:15:22.364Z,99.90
2018-11-07T08:17:50.716Z,99.90
2018-11-07T08:20:19.396Z,99.90
2018-11-07T08:22:48.309Z,99.90
2018-11-07T08:25:16.575Z,99.90
2018-11-07T08:27:44.902Z,99.90
2018-11-07T08:30:15.016Z,99.90
2018-11-07T08:32:43.276Z,99.90
2018-11-07T08:35:12.594Z,99.90
2018-11-07T08:37:41.687Z,99.90
2018-11-07T08:40:13.354Z,99.90
2018-11-07T08:42:41.630Z,99.90
2018-11-07T08:45:10.899Z,99.90
2018-11-07T08:47:39.214Z,99.90
2018-11-07T08:50:09.531Z,99.90
2018-11-07T08:52:37.772Z,99.90
2018-11-07T08:55:07.520Z,99.90
2018-11-07T08:57:35.699Z,99.90
2018-11-07T09:00:05.469Z,99.90
2018-11-07T09:02:33.769Z,99.90
2018-11-07T09:05:02.224Z,99.90
2018-11-07T09:07:30.532Z,99.90
2018-11-07T09:09:58.797Z,99.90
2018-11-07T09:12:27.052Z,99.90
2018-11-07T09:14:55.550Z,99.90
2018-11-07T09:17:23.860Z,99.90
2018-11-07T09:19:52.111Z,99.90
2018-11-07T09:22:20.483Z,99.90
2018-11-07T09:24:48.762Z,99.90
2018-11-07T09:27:17.087Z,99.90
2018-11-07T09:29:45.324Z,99.90
2018-11-07T09:32:13.785Z,99.90
2018-11-07T09:34:42.106Z,99.90
2018-11-07T09:37:10.359Z,99.90
2018-11-07T09:39:38.666Z,99.90
2018-11-07T09:42:06.917Z,99.90
2018-11-07T09:44:35.239Z,99.90
2018-11-07T09:47:03.526Z,99.90
2018-11-07T09:49:31.780Z,99.90
2018-11-07T09:52:00.071Z,99.90
2018-11-07T09:54:28.365Z,99.90
2018-11-07T09:56:56.662Z,99.90
2018-11-07T09:59:24.951Z,99.90
2018-11-07T10:01:53.078Z,99.90
2018-11-07T10:04:21.344Z,99.90
2018-11-07T10:06:49.515Z,99.90
2018-11-07T10:09:17.770Z,99.90
2018-11-07T10:11:45.960Z,99.90
2018-11-07T10:14:14.167Z,99.90
2018-11-07T10:16:42.425Z,99.90
2018-11-07T10:19:10.646Z,99.90
2018-11-07T10:21:38.829Z,99.90
2018-11-07T10:24:07.024Z,99.90
2018-11-07T10:26:35.278Z,99.90
2018-11-07T10:29:03.687Z,99.90
2018-11-07T10:31:31.706Z,99.90
2018-11-07T10:33:59.981Z,99.90
2018-11-07T10:36:28.189Z,99.90
2018-11-07T10:38:56.462Z,96.40
2018-11-07T10:41:24.689Z,96.00
2018-11-07T10:43:52.929Z,94.40
2018-11-07T10:46:21.518Z,96.40
2018-11-07T10:48:49.743Z,93.60
2018-11-07T10:51:17.921Z,94.00
2018-11-07T10:53:46.252Z,93.60
2018-11-07T10:56:14.451Z,90.70
2018-11-07T10:58:42.657Z,91.10
2018-11-07T11:01:16.128Z,90.00
2018-11-07T11:03:44.543Z,88.80
2018-11-07T11:06:12.735Z,90.50
2018-11-07T11:08:40.957Z,90.50
2018-11-07T11:11:09.213Z,90.80
2018-11-07T11:13:37.941Z,90.10
2018-11-07T11:16:06.252Z,87.30
2018-11-07T11:18:34.459Z,87.70
2018-11-07T11:21:02.664Z,81.90
2018-11-07T11:23:30.854Z,85.40
2018-11-07T11:25:59.099Z,83.90
2018-11-07T11:28:27.351Z,83.80
2018-11-07T11:30:55.549Z,84.30
2018-11-07T11:33:23.825Z,83.70
2018-11-07T11:35:52.506Z,87.10
2018-11-07T11:38:20.919Z,84.70
2018-11-07T11:40:49.136Z,87.40
2018-11-07T11:43:17.339Z,85.00
2018-11-07T11:45:45.559Z,84.90
2018-11-07T11:48:13.785Z,88.20
2018-11-07T11:50:41.989Z,80.70
2018-11-07T11:53:10.249Z,84.30
2018-11-07T11:55:38.629Z,83.50
2018-11-07T11:58:06.913Z,84.40
2018-11-07T12:00:35.181Z,84.70
2018-11-07T12:03:03.474Z,83.90
2018-11-07T12:05:31.684Z,85.80
2018-11-07T12:07:59.992Z,87.60
2018-11-07T12:10:28.182Z,84.90
2018-11-07T12:12:57.402Z,84.90
2018-11-07T12:15:27.089Z,84.70
2018-11-07T12:17:55.559Z,83.50
2018-11-07T12:20:23.904Z,83.70
2018-11-07T12:22:52.113Z,81.40
2018-11-07T12:25:20.973Z,81.00
2018-11-07T12:27:49.319Z,84.60
2018-11-07T12:30:19.586Z,84.40
2018-11-07T12:32:48.990Z,84.90
2018-11-07T12:35:17.706Z,84.90
2018-11-07T12:37:45.945Z,86.20
2018-11-07T12:40:14.754Z,87.90
2018-11-07T12:42:43.019Z,88.50
2018-11-07T12:45:12.520Z,88.40
2018-11-07T12:47:41.092Z,89.10
2018-11-07T12:50:11.823Z,90.40
2018-11-07T12:52:39.810Z,91.10
2018-11-07T12:55:09.337Z,91.00
2018-11-07T12:57:37.828Z,91.50
2018-11-07T13:00:09.984Z,91.40
2018-11-07T13:02:38.273Z,92.70
2018-11-07T13:05:07.301Z,93.40
2018-11-07T13:07:35.526Z,93.60
2018-11-07T13:10:03.806Z,93.90
2018-11-07T13:12:32.186Z,93.90
2018-11-07T13:15:00.404Z,94.80
2018-11-07T13:17:28.601Z,95.00
2018-11-07T13:19:56.814Z,95.90
2018-11-07T13:22:25.110Z,96.30
2018-11-07T13:24:53.452Z,96.20
2018-11-07T13:27:21.645Z,96.30
2018-11-07T13:29:49.980Z,96.40
2018-11-07T13:32:18.260Z,96.60
2018-11-07T13:34:46.480Z,96.60
2018-11-07T13:37:14.902Z,97.40
2018-11-07T13:39:42.897Z,97.30
2018-11-07T13:42:11.473Z,97.40
2018-11-07T13:44:39.688Z,97.50
2018-11-07T13:47:07.870Z,98.40
2018-11-07T13:49:36.048Z,98.20
2018-11-07T13:52:04.426Z,98.60
2018-11-07T13:54:32.738Z,98.50
2018-11-07T13:57:00.917Z,99.00
2018-11-07T13:59:29.320Z,99.30
2018-11-07T14:01:57.408Z,99.90
2018-11-07T14:04:25.713Z,99.90
2018-11-07T14:06:53.954Z,99.90
2018-11-07T14:09:22.169Z,99.90
2018-11-07T14:11:50.365Z,99.90
2018-11-07T14:14:18.584Z,99.90
2018-11-07T14:16:47.253Z,99.90
2018-11-07T14:19:15.517Z,99.90
2018-11-07T14:21:43.688Z,99.90
2018-11-07T14:24:11.859Z,99.90
2018-11-07T14:26:40.209Z,99.90
2018-11-07T14:29:08.606Z,99.90
2018-11-07T14:31:36.896Z,99.90
2018-11-07T14:34:05.927Z,99.90
2018-11-07T14:36:34.108Z,99.90
2018-11-07T14:39:02.367Z,99.90
2018-11-07T14:41:30.613Z,99.90
2018-11-07T14:43:58.845Z,99.90
2018-11-07T14:46:27.100Z,99.90
2018-11-07T14:48:55.325Z,99.90
2018-11-07T14:51:23.596Z,99.90
2018-11-07T14:53:51.977Z,99.90
2018-11-07T14:56:20.149Z,99.90
2018-11-07T14:58:48.339Z,99.90
2018-11-07T15:01:16.543Z,99.90
2018-11-07T15:03:44.804Z,99.90
2018-11-07T15:06:13.098Z,99.90
2018-11-07T15:08:41.260Z,99.90
2018-11-07T15:11:09.550Z,99.90
2018-11-07T15:13:37.724Z,99.90
2018-11-07T15:16:06.013Z,99.90
2018-11-07T15:18:34.393Z,99.90
2018-11-07T15:21:02.620Z,99.90
2018-11-07T15:23:30.928Z,99.90
2018-11-07T15:25:59.153Z,99.90
2018-11-07T15:28:27.500Z,99.90
2018-11-07T15:30:55.800Z,99.90
2018-11-07T15:33:24.066Z,99.90
2018-11-07T15:35:52.404Z,99.90
2018-11-07T15:38:20.566Z,99.90
2018-11-07T15:40:48.790Z,99.90
2018-11-07T15:43:17.146Z,99.90
2018-11-07T15:45:45.407Z,99.90
2018-11-07T15:48:13.787Z,99.90
2018-11-07T15:51:20.501Z,99.90
2018-11-07T15:53:48.750Z,99.90
2018-11-07T15:56:17.020Z,99.90
2018-11-07T15:58:45.329Z,99.90
2018-11-07T16:01:13.958Z,99.90
2018-11-07T16:03:48.692Z,99.90
2018-11-07T16:06:18.085Z,99.90
2018-11-07T16:08:46.468Z,99.90
2018-11-07T16:11:14.802Z,99.90
2018-11-07T16:13:43.344Z,99.90
2018-11-07T16:16:11.541Z,99.90
2018-11-07T16:18:39.823Z,99.90
2018-11-07T16:21:08.248Z,99.90
2018-11-07T16:23:36.539Z,99.90
2018-11-07T16:26:04.953Z,99.90
2018-11-07T16:28:33.231Z,99.90
2018-11-07T16:31:01.511Z,99.90
2018-11-07T16:33:29.797Z,99.90
2018-11-07T16:35:58.074Z,99.90
2018-11-07T16:38:26.246Z,99.90
2018-11-07T16:40:54.539Z,99.90
2018-11-07T16:43:22.887Z,99.90
2018-11-07T16:45:51.065Z,99.90
2018-11-07T16:48:19.304Z,99.90
2018-11-07T16:50:47.520Z,99.90
2018-11-07T16:53:15.789Z,99.90
2018-11-07T16:55:44.032Z,99.90
2018-11-07T16:58:12.209Z,99.90
2018-11-07T17:00:40.455Z,99.90
2018-11-07T17:03:08.727Z,99.90
2018-11-07T17:05:36.937Z,99.90
2018-11-07T17:08:05.215Z,99.90
2018-11-07T17:10:33.373Z,99.90
2018-11-07T17:13:01.561Z,99.90
2018-11-07T17:15:29.813Z,99.90
2018-11-07T17:17:58.083Z,99.90
2018-11-07T17:20:26.309Z,99.90
2018-11-07T17:22:54.577Z,99.90
2018-11-07T17:25:22.908Z,99.90
2018-11-07T17:27:51.121Z,99.90
2018-11-07T17:30:19.393Z,99.90
2018-11-07T17:32:49.150Z,99.90
2018-11-07T17:35:18.323Z,99.90
2018-11-07T17:37:46.883Z,99.90
2018-11-07T17:40:19.152Z,99.90
2018-11-07T17:42:47.661Z,99.90
2018-11-07T17:45:17.320Z,99.90
2018-11-07T17:47:45.995Z,99.90
2018-11-07T17:50:15.362Z,99.90
2018-11-07T17:52:43.737Z,99.90
2018-11-07T17:55:13.301Z,99.90
2018-11-07T17:57:41.557Z,99.90
2018-11-07T18:00:15.226Z,99.90
2018-11-07T18:02:43.548Z,99.90
2018-11-07T18:05:11.733Z,99.90
2018-11-07T18:07:40.421Z,99.90
2018-11-07T18:10:11.149Z,99.90
2018-11-07T18:12:39.338Z,99.90
2018-11-07T18:15:08.413Z,99.90
2018-11-07T18:17:36.814Z,99.90
2018-11-07T18:20:06.550Z,99.90
2018-11-07T18:22:34.909Z,99.90
2018-11-07T18:25:03.175Z,99.90
2018-11-07T18:27:31.449Z,99.90
2018-11-07T18:30:01.868Z,99.90
2018-11-07T18:32:30.205Z,99.90
2018-11-07T18:34:58.467Z,99.90
2018-11-07T18:37:26.725Z,99.90
2018-11-07T18:39:54.934Z,99.90
2018-11-07T18:42:23.246Z,99.90
2018-11-07T18:44:51.554Z,99.90
2018-11-07T18:47:19.826Z,99.90
2018-11-07T18:49:48.341Z,99.90
2018-11-07T18:52:16.837Z,99.90
2018-11-07T18:54:45.183Z,99.90
2018-11-07T18:57:13.554Z,99.90
2018-11-07T18:59:42.824Z,99.90
2018-11-07T19:02:11.129Z,99.90
2018-11-07T19:04:39.438Z,99.90
2018-11-07T19:07:07.727Z,99.90
2018-11-07T19:09:36.024Z,99.90
2018-11-07T19:12:04.691Z,99.90
2018-11-07T19:14:33.039Z,99.90
2018-11-07T19:17:01.325Z,99.90
2018-11-07T19:19:29.610Z,99.90
2018-11-07T19:21:58.033Z,99.90
2018-11-07T19:24:26.290Z,99.90
2018-11-07T19:26:54.879Z,99.90
2018-11-07T19:29:23.358Z,99.90
2018-11-07T19:31:51.856Z,99.90
2018-11-07T19:34:20.320Z,99.90
2018-11-07T19:36:49.034Z,99.90
2018-11-07T19:39:17.809Z,99.90
2018-11-07T19:41:46.384Z,99.90
2018-11-07T19:44:14.911Z,99.90
2018-11-07T19:46:43.550Z,99.90
2018-11-07T19:49:11.932Z,99.90
2018-11-07T19:51:40.477Z,99.90
2018-11-07T19:54:09.336Z,99.90
2018-11-07T19:56:38.611Z,99.90
2018-11-07T19:59:06.850Z,99.90
2018-11-07T20:01:35.331Z,99.90
2018-11-07T20:04:04.014Z,99.90
2018-11-07T20:06:32.568Z,99.90
2018-11-07T20:09:01.329Z,99.90
2018-11-07T20:11:29.978Z,99.90
2018-11-07T20:13:58.544Z,99.90
2018-11-07T20:16:27.280Z,99.90
2018-11-07T20:18:56.084Z,99.90
2018-11-07T20:21:24.768Z,99.90
2018-11-07T20:23:53.126Z,99.90
2018-11-07T20:26:21.644Z,99.90
2018-11-07T20:28:50.527Z,99.90
2018-11-07T20:31:19.442Z,99.90
2018-11-07T20:33:48.016Z,99.90
2018-11-07T20:36:16.379Z,99.90
2018-11-07T20:38:44.911Z,99.90
2018-11-07T20:41:13.394Z,99.90
2018-11-07T20:43:42.221Z,99.90
2018-11-07T20:46:10.761Z,99.90
2018-11-07T20:48:39.072Z,99.90
2018-11-07T20:51:07.374Z,99.90
2018-11-07T20:53:35.624Z,99.90
2018-11-07T20:56:03.995Z,99.90
2018-11-07T20:58:32.529Z,99.90
2018-11-07T21:01:01.194Z,99.90
2018-11-07T21:03:29.668Z,99.90
2018-11-07T21:05:58.376Z,99.90
2018-11-07T21:08:26.777Z,99.90
2018-11-07T21:10:55.232Z,99.90
2018-11-07T21:13:23.581Z,99.90
2018-11-07T21:15:52.019Z,99.90
2018-11-07T21:18:20.489Z,99.90
2018-11-07T21:20:49.100Z,99.90
2018-11-07T21:23:17.329Z,99.90
2018-11-07T21:25:45.520Z,99.90
2018-11-07T21:28:14.183Z,99.90
2018-11-07T21:30:42.369Z,99.90
2018-11-07T21:33:10.590Z,99.90
2018-11-07T21:35:38.825Z,99.90
2018-11-07T21:38:07.029Z,99.90
2018-11-07T21:40:35.222Z,99.90
2018-11-07T21:43:03.551Z,99.90
2018-11-07T21:45:31.794Z,99.90
2018-11-07T21:47:59.989Z,99.90
2018-11-07T21:50:28.249Z,99.90
2018-11-07T21:52:56.464Z,99.90
2018-11-07T21:55:24.928Z,99.90
2018-11-07T21:57:53.169Z,99.90
2018-11-07T22:00:21.364Z,99.90
2018-11-07T22:02:49.615Z,99.90
2018-11-07T22:05:18.401Z,99.90
2018-11-07T22:07:46.669Z,99.90
2018-11-07T22:10:17.639Z,99.90
2018-11-07T22:12:45.901Z,99.90
2018-11-07T22:15:14.088Z,99.90
2018-11-07T22:17:42.251Z,99.90
2018-11-07T22:20:12.313Z,99.90
2018-11-07T22:22:40.496Z,99.90
2018-11-07T22:25:08.696Z,99.90
2018-11-07T22:27:36.975Z,99.90
2018-11-07T22:30:06.222Z,99.90
2018-11-07T22:32:34.403Z,99.90
2018-11-07T22:35:02.693Z,99.90
2018-11-07T22:37:30.961Z,99.90
2018-11-07T22:39:59.189Z,99.90
2018-11-07T22:42:27.387Z,99.90
2018-11-07T22:44:55.580Z,99.90
2018-11-07T22:47:23.835Z,99.90
2018-11-07T22:49:52.200Z,99.90
2018-11-07T22:52:20.425Z,99.90
2018-11-07T22:54:48.732Z,99.90
2018-11-07T22:57:16.937Z,99.90
2018-11-07T22:59:45.192Z,99.90
2018-11-07T23:02:13.386Z,99.90
2018-11-07T23:04:41.641Z,99.90
2018-11-07T23:07:09.870Z,99.90
2018-11-07T23:09:38.050Z,99.90
2018-11-07T23:12:06.487Z,99.90
2018-11-07T23:14:34.881Z,99.90
2018-11-07T23:17:03.121Z,99.90
2018-11-07T23:19:31.551Z,99.90
2018-11-07T23:21:59.629Z,99.90
2018-11-07T23:24:28.148Z,99.90
2018-11-07T23:26:56.461Z,99.90
2018-11-07T23:29:24.697Z,99.90
2018-11-07T23:31:52.892Z,99.90
2018-11-07T23:34:21.137Z,99.90
2018-11-07T23:36:49.368Z,99.90
2018-11-07T23:39:17.595Z,99.90
2018-11-07T23:41:45.816Z,99.90
2018-11-07T23:44:14.008Z,99.90
2018-11-07T23:46:42.177Z,99.90
2018-11-07T23:49:10.437Z,99.90
2018-11-07T23:51:43.697Z,99.90
2018-11-07T23:54:11.909Z,99.90
2018-11-07T23:56:40.107Z,99.90
2018-11-07T23:59:08.314Z,99.90
